createdAt,value
2023-04-09T00:00:03.748Z,30.58
2023-04-09T00:02:41.026Z,30.70
2023-04-09T00:05:09.918Z,30.35
2023-04-09T00:07:39.578Z,30.20
2023-04-09T00:10:09.349Z,29.65
2023-04-09T00:12:37.860Z,31.13
2023-04-09T00:15:10.992Z,31.05
2023-04-09T00:17:41.580Z,30.77
2023-04-09T00:20:10.980Z,31.70
2023-04-09T00:22:40.741Z,30.75
2023-04-09T00:25:09.985Z,30.55
2023-04-09T00:27:38.330Z,31.85
2023-04-09T00:30:08.574Z,30.60
2023-04-09T00:32:36.964Z,30.23
2023-04-09T00:35:05.996Z,31.13
2023-04-09T00:37:34.385Z,31.63
2023-04-09T00:40:04.548Z,30.90
2023-04-09T00:42:34.045Z,30.52
2023-04-09T00:45:02.464Z,31.33
2023-04-09T00:47:32.002Z,32.42
2023-04-09T00:50:01.844Z,31.23
2023-04-09T00:52:31.381Z,31.23
2023-04-09T00:55:03.336Z,31.25
2023-04-09T00:57:31.708Z,33.00
2023-04-09T01:00:00.332Z,32.53
2023-04-09T01:02:28.981Z,32.80
2023-04-09T01:04:57.651Z,32.85
2023-04-09T01:07:40.794Z,32.75
2023-04-09T01:10:22.432Z,32.83
2023-04-09T01:13:05.780Z,32.38
2023-04-09T01:15:41.389Z,31.88
2023-04-09T01:18:17.925Z,32.58
2023-04-09T01:20:56.625Z,34.13
2023-04-09T01:23:38.683Z,32.53
2023-04-09T01:26:20.166Z,32.40
2023-04-09T01:28:58.413Z,32.38
2023-04-09T01:31:33.100Z,32.50
2023-04-09T01:34:03.069Z,34.50
2023-04-09T01:36:33.049Z,33.50
2023-04-09T01:39:03.281Z,33.55
2023-04-09T01:41:34.484Z,33.45
2023-04-09T01:44:07.041Z,33.78
2023-04-09T01:46:36.503Z,34.42
2023-04-09T01:49:06.165Z,32.92
2023-04-09T01:51:34.753Z,34.67
2023-04-09T01:54:03.061Z,35.40
2023-04-09T01:56:42.460Z,34.95
2023-04-09T01:59:12.318Z,34.13
2023-04-09T02:01:47.779Z,33.97
2023-04-09T02:04:24.933Z,34.58
2023-04-09T02:07:00.636Z,34.28
2023-04-09T02:09:32.687Z,35.42
2023-04-09T02:12:06.230Z,35.35
2023-04-09T02:14:38.920Z,35.38
2023-04-09T02:17:07.795Z,35.72
2023-04-09T02:19:43.677Z,36.85
2023-04-09T02:22:13.118Z,35.85
2023-04-09T02:24:41.749Z,36.55
2023-04-09T02:27:10.611Z,36.83
2023-04-09T02:29:41.812Z,37.67
2023-04-09T02:32:10.291Z,38.50
2023-04-09T02:34:38.723Z,39.47
2023-04-09T02:37:07.431Z,38.88
2023-04-09T02:39:35.841Z,38.55
2023-04-09T02:42:04.147Z,38.35
2023-04-09T02:44:32.390Z,40.30
2023-04-09T02:47:02.539Z,39.97
2023-04-09T02:49:31.128Z,40.10
2023-04-09T02:51:59.398Z,39.47
2023-04-09T02:54:27.863Z,38.45
2023-04-09T02:56:56.668Z,38.60
2023-04-09T02:59:25.037Z,39.70
2023-04-09T03:01:53.451Z,40.20
2023-04-09T03:04:23.385Z,37.97
2023-04-09T03:06:51.800Z,39.47
2023-04-09T03:09:20.275Z,39.35
2023-04-09T03:11:48.616Z,39.10
2023-04-09T03:14:16.917Z,39.55
2023-04-09T03:16:46.159Z,39.45
2023-04-09T03:19:14.438Z,38.95
2023-04-09T03:21:44.586Z,40.05
2023-04-09T03:24:13.188Z,39.43
2023-04-09T03:26:42.076Z,39.92
2023-04-09T03:29:11.233Z,39.10
2023-04-09T03:31:40.105Z,40.13
2023-04-09T03:34:09.100Z,40.25
2023-04-09T03:36:37.377Z,39.50
2023-04-09T03:39:12.889Z,40.42
2023-04-09T03:41:44.593Z,40.00
2023-04-09T03:44:16.731Z,39.72
2023-04-09T03:47:14.267Z,39.67
2023-04-09T03:49:42.732Z,41.60
2023-04-09T03:52:19.114Z,39.47
2023-04-09T03:54:55.855Z,41.38
2023-04-09T03:57:26.680Z,40.63
2023-04-09T03:59:56.489Z,40.22
2023-04-09T04:02:27.186Z,41.75
2023-04-09T04:05:03.037Z,39.58
2023-04-09T04:07:37.017Z,40.28
2023-04-09T04:10:14.288Z,38.22
2023-04-09T04:12:46.530Z,40.50
2023-04-09T04:15:23.774Z,38.60
2023-04-09T04:17:56.138Z,38.78
2023-04-09T04:20:41.281Z,40.65
2023-04-09T04:23:15.331Z,43.33
2023-04-09T04:25:54.652Z,40.65
2023-04-09T04:28:30.044Z,41.72
2023-04-09T04:30:58.527Z,40.47
2023-04-09T04:33:27.676Z,40.53
2023-04-09T04:36:06.519Z,41.23
2023-04-09T04:38:42.527Z,41.90
2023-04-09T04:41:19.694Z,42.20
2023-04-09T04:43:55.186Z,39.25
2023-04-09T04:46:25.574Z,41.67
2023-04-09T04:48:54.114Z,40.50
2023-04-09T04:51:23.993Z,40.65
2023-04-09T04:54:03.604Z,40.22
2023-04-09T04:56:33.720Z,39.97
2023-04-09T04:59:13.044Z,40.35
2023-04-09T05:02:04.571Z,37.03
2023-04-09T05:04:39.730Z,37.90
2023-04-09T05:07:10.662Z,38.25
2023-04-09T05:09:46.779Z,37.53
2023-04-09T05:12:18.015Z,38.22
2023-04-09T05:14:51.339Z,37.78
2023-04-09T05:17:19.983Z,39.67
2023-04-09T05:19:52.802Z,37.40
2023-04-09T05:22:26.505Z,37.10
2023-04-09T05:24:54.903Z,38.40
2023-04-09T05:27:26.051Z,36.33
2023-04-09T05:30:00.748Z,36.42
2023-04-09T05:32:29.653Z,36.03
2023-04-09T05:34:59.278Z,37.40
2023-04-09T05:37:29.465Z,34.75
2023-04-09T05:39:58.040Z,37.15
2023-04-09T05:42:28.171Z,36.33
2023-04-09T05:45:03.838Z,36.95
2023-04-09T05:47:32.177Z,37.63
2023-04-09T05:50:09.890Z,36.67
2023-04-09T05:52:38.416Z,38.47
2023-04-09T05:55:09.743Z,36.75
2023-04-09T05:57:59.193Z,36.85
2023-04-09T06:00:28.877Z,37.53
2023-04-09T06:02:57.267Z,38.63
2023-04-09T06:05:28.350Z,35.28
2023-04-09T06:07:56.820Z,37.40
2023-04-09T06:10:26.025Z,38.60
2023-04-09T06:12:54.515Z,39.38
2023-04-09T06:15:24.200Z,38.33
2023-04-09T06:17:52.536Z,38.33
2023-04-09T06:20:21.171Z,38.67
2023-04-09T06:22:49.748Z,37.55
2023-04-09T06:25:18.129Z,37.05
2023-04-09T06:27:46.529Z,37.92
2023-04-09T06:30:15.157Z,37.47
2023-04-09T06:32:53.764Z,37.00
2023-04-09T06:35:23.124Z,37.70
2023-04-09T06:37:51.475Z,37.80
2023-04-09T06:40:22.794Z,37.08
2023-04-09T06:42:51.591Z,35.72
2023-04-09T06:45:29.135Z,36.45
2023-04-09T06:47:58.863Z,37.90
2023-04-09T06:50:27.464Z,38.30
2023-04-09T06:52:56.844Z,38.58
2023-04-09T06:55:26.824Z,36.92
2023-04-09T06:57:55.434Z,36.38
2023-04-09T07:00:24.084Z,37.20
2023-04-09T07:02:53.520Z,37.67
2023-04-09T07:05:23.971Z,39.03
2023-04-09T07:07:52.325Z,36.75
2023-04-09T07:10:23.592Z,38.97
2023-04-09T07:12:54.085Z,38.15
2023-04-09T07:15:27.915Z,39.08
2023-04-09T07:17:58.687Z,36.35
2023-04-09T07:20:28.560Z,38.17
2023-04-09T07:22:56.862Z,37.63
2023-04-09T07:25:25.286Z,38.97
2023-04-09T07:27:53.857Z,38.72
2023-04-09T07:30:22.696Z,45.45
2023-04-09T07:32:51.749Z,41.10
2023-04-09T07:35:20.398Z,42.42
2023-04-09T07:37:50.355Z,41.58
2023-04-09T07:40:18.940Z,39.75
2023-04-09T07:42:47.220Z,40.08
2023-04-09T07:45:15.598Z,42.30
2023-04-09T07:47:44.788Z,46.67
2023-04-09T07:50:13.472Z,44.08
2023-04-09T07:52:41.998Z,44.45
2023-04-09T07:55:11.795Z,42.63
2023-04-09T07:57:43.026Z,43.63
2023-04-09T08:00:13.666Z,44.80
2023-04-09T08:02:42.550Z,44.03
2023-04-09T08:05:12.062Z,44.53
2023-04-09T08:07:40.808Z,45.60
2023-04-09T08:10:15.098Z,45.53
2023-04-09T08:12:43.606Z,47.05
2023-04-09T08:15:12.594Z,48.95
2023-04-09T08:17:40.969Z,47.15
2023-04-09T08:20:10.956Z,50.13
2023-04-09T08:22:41.089Z,49.17
2023-04-09T08:25:11.365Z,49.22
2023-04-09T08:27:39.786Z,50.30
2023-04-09T08:30:10.013Z,51.55
2023-04-09T08:32:38.390Z,51.22
2023-04-09T08:35:09.046Z,50.58
2023-04-09T08:40:06.783Z,50.72
2023-04-09T08:42:41.301Z,50.30
2023-04-09T08:45:11.733Z,51.25
2023-04-09T08:47:43.014Z,51.67
2023-04-09T08:50:11.986Z,54.40
2023-04-09T08:52:41.602Z,51.63
2023-04-09T08:55:12.928Z,53.50
2023-04-09T08:57:43.442Z,52.20
2023-04-09T09:00:13.457Z,55.30
2023-04-09T09:03:06.201Z,52.88
2023-04-09T09:05:40.343Z,54.35
2023-04-09T09:08:10.698Z,52.10
2023-04-09T09:10:41.450Z,53.55
2023-04-09T09:13:24.124Z,51.70
2023-04-09T09:15:55.521Z,51.75
2023-04-09T09:18:40.422Z,53.85
2023-04-09T09:21:12.869Z,55.90
2023-04-09T09:23:42.406Z,53.25
2023-04-09T09:26:16.449Z,52.67
2023-04-09T09:28:46.887Z,50.17
2023-04-09T09:31:17.083Z,52.17
2023-04-09T09:33:46.707Z,52.40
2023-04-09T09:36:15.978Z,51.67
2023-04-09T09:38:56.257Z,53.13
2023-04-09T09:41:25.903Z,53.90
2023-04-09T09:43:55.772Z,53.28
2023-04-09T09:46:26.512Z,52.63
2023-04-09T09:48:55.414Z,53.03
2023-04-09T09:51:28.913Z,53.33
2023-04-09T09:53:58.439Z,55.17
2023-04-09T09:56:33.289Z,56.50
2023-04-09T09:59:09.152Z,54.78
2023-04-09T10:01:38.373Z,56.40
2023-04-09T10:04:08.657Z,57.92
2023-04-09T10:06:38.778Z,57.17
2023-04-09T10:09:07.833Z,57.65
2023-04-09T10:11:38.885Z,55.72
2023-04-09T10:14:08.799Z,56.47
2023-04-09T10:16:37.228Z,57.58
2023-04-09T10:19:06.912Z,55.70
2023-04-09T10:21:44.035Z,57.40
2023-04-09T10:24:13.094Z,56.30
2023-04-09T10:26:42.809Z,57.90
2023-04-09T10:29:14.914Z,57.40
2023-04-09T10:31:53.083Z,56.35
2023-04-09T10:34:24.454Z,57.15
2023-04-09T10:36:56.710Z,58.22
2023-04-09T10:39:29.731Z,57.28
2023-04-09T10:41:59.508Z,58.45
2023-04-09T10:44:31.836Z,59.97
2023-04-09T10:47:00.397Z,62.55
2023-04-09T10:49:37.351Z,60.20
2023-04-09T10:52:09.535Z,60.65
2023-04-09T10:54:45.896Z,61.15
2023-04-09T10:57:22.165Z,60.15
2023-04-09T10:59:53.807Z,59.05
2023-04-09T11:03:01.781Z,57.58
2023-04-09T11:05:34.800Z,59.83
2023-04-09T11:08:07.554Z,58.70
2023-04-09T11:10:36.201Z,59.42
2023-04-09T11:13:05.429Z,59.65
2023-04-09T11:15:37.360Z,59.88
2023-04-09T11:18:09.686Z,60.90
2023-04-09T11:20:38.253Z,59.38
2023-04-09T11:23:07.097Z,57.92
2023-04-09T11:25:36.096Z,60.92
2023-04-09T11:28:06.182Z,59.50
2023-04-09T11:30:37.502Z,56.92
2023-04-09T11:33:05.871Z,57.85
2023-04-09T11:35:37.360Z,59.13
2023-04-09T11:38:09.734Z,57.78
2023-04-09T11:40:43.606Z,56.15
2023-04-09T11:43:12.055Z,58.05
2023-04-09T11:45:42.167Z,56.30
2023-04-09T11:48:10.932Z,56.65
2023-04-09T11:50:39.586Z,58.40
2023-04-09T11:53:19.197Z,58.72
2023-04-09T11:55:51.151Z,60.05
2023-04-09T11:58:22.292Z,56.50
2023-04-09T12:00:55.307Z,55.35
2023-04-09T12:03:30.899Z,56.92
2023-04-09T12:06:03.037Z,56.30
2023-04-09T12:08:34.561Z,54.88
2023-04-09T12:11:11.280Z,54.90
2023-04-09T12:13:43.203Z,54.42
2023-04-09T12:16:13.668Z,52.78
2023-04-09T12:18:42.601Z,55.88
2023-04-09T12:21:11.261Z,51.95
2023-04-09T12:23:39.660Z,51.50
2023-04-09T12:26:08.227Z,52.08
2023-04-09T12:28:37.000Z,49.75
2023-04-09T12:31:06.036Z,50.28
2023-04-09T12:33:38.860Z,49.55
2023-04-09T12:36:07.458Z,49.75
2023-04-09T12:38:35.913Z,51.00
2023-04-09T12:41:04.328Z,51.67
2023-04-09T12:43:32.719Z,50.15
2023-04-09T12:46:01.102Z,48.85
2023-04-09T12:48:29.459Z,48.55
2023-04-09T12:50:59.268Z,47.33
2023-04-09T12:53:27.665Z,48.33
2023-04-09T12:55:56.317Z,47.42
2023-04-09T12:58:24.944Z,46.30
2023-04-09T13:00:54.420Z,45.58
2023-04-09T13:03:22.972Z,44.75
2023-04-09T13:05:51.573Z,43.60
2023-04-09T13:08:21.257Z,45.42
2023-04-09T13:10:49.585Z,45.17
2023-04-09T13:13:17.977Z,43.03
2023-04-09T13:15:46.468Z,42.25
2023-04-09T13:18:15.414Z,43.22
2023-04-09T13:20:43.915Z,40.90
2023-04-09T13:23:12.393Z,40.22
2023-04-09T13:25:42.094Z,40.47
2023-04-09T13:28:10.531Z,39.83
2023-04-09T13:30:38.984Z,37.65
2023-04-09T13:33:07.477Z,36.72
2023-04-09T13:35:35.929Z,37.97
2023-04-09T13:38:04.272Z,39.08
2023-04-09T13:40:32.688Z,37.40
2023-04-09T13:43:02.598Z,36.72
2023-04-09T13:45:30.959Z,37.45
2023-04-09T13:47:59.351Z,37.15
2023-04-09T13:50:27.804Z,36.35
2023-04-09T13:52:56.299Z,37.97
2023-04-09T13:55:24.604Z,35.85
2023-04-09T13:57:52.948Z,34.45
2023-04-09T14:00:22.748Z,34.53
2023-04-09T14:02:51.254Z,33.22
2023-04-09T14:05:19.808Z,34.75
2023-04-09T14:07:48.210Z,37.33
2023-04-09T14:10:16.964Z,33.38
2023-04-09T14:12:45.442Z,31.58
2023-04-09T14:15:13.898Z,32.58
2023-04-09T14:17:45.068Z,31.83
2023-04-09T14:20:13.931Z,31.23
2023-04-09T14:22:43.012Z,31.65
2023-04-09T14:25:11.696Z,32.83
2023-04-09T14:27:40.043Z,31.60
2023-04-09T14:30:11.044Z,29.95
2023-04-09T14:32:39.409Z,29.60
2023-04-09T14:35:10.492Z,28.48
2023-04-09T14:37:40.896Z,26.55
2023-04-09T14:40:10.551Z,23.48
2023-04-09T14:42:38.845Z,25.48
2023-04-09T14:45:08.189Z,24.45
2023-04-09T14:47:36.534Z,26.95
2023-04-09T14:50:05.493Z,25.52
2023-04-09T14:52:35.277Z,25.50
2023-04-09T14:55:04.147Z,26.33
2023-04-09T14:57:32.586Z,26.95
2023-04-09T15:00:01.037Z,25.75
2023-04-09T15:02:29.664Z,23.73
2023-04-09T15:04:58.244Z,24.25
2023-04-09T15:07:26.636Z,23.52
2023-04-09T15:09:59.369Z,20.20
2023-04-09T15:12:28.829Z,18.52
2023-04-09T15:14:57.556Z,20.05
2023-04-09T15:17:26.506Z,18.92
2023-04-09T15:19:55.324Z,18.45
2023-04-09T15:22:23.740Z,17.75
2023-04-09T15:24:52.403Z,18.80
2023-04-09T15:27:22.237Z,19.10
2023-04-09T15:29:50.809Z,19.20
2023-04-09T15:32:19.386Z,20.83
2023-04-09T15:34:47.817Z,20.13
2023-04-09T15:37:16.098Z,20.10
2023-04-09T15:39:44.484Z,18.95
2023-04-09T15:42:14.248Z,18.80
2023-04-09T15:44:44.613Z,20.75
2023-04-09T15:47:12.995Z,21.37
2023-04-09T15:49:41.360Z,20.85
2023-04-09T15:52:09.829Z,19.48
2023-04-09T15:54:38.196Z,20.70
2023-04-09T15:57:06.704Z,18.10
2023-04-09T15:59:35.077Z,16.98
2023-04-09T16:02:05.703Z,17.90
2023-04-09T16:07:04.233Z,20.83
2023-04-09T16:09:32.656Z,20.73
2023-04-09T16:12:01.483Z,19.77
2023-04-09T16:14:30.175Z,18.35
2023-04-09T16:16:58.692Z,17.23
2023-04-09T16:19:28.775Z,16.15
2023-04-09T16:21:57.648Z,18.00
2023-04-09T16:24:27.125Z,19.13
2023-04-09T16:26:57.002Z,19.33
2023-04-09T16:29:25.981Z,18.45
2023-04-09T16:31:55.147Z,20.30
2023-04-09T16:34:23.631Z,19.20
2023-04-09T16:36:53.250Z,20.33
2023-04-09T16:39:21.493Z,19.90
2023-04-09T16:41:52.367Z,19.52
2023-04-09T16:44:20.832Z,20.25
2023-04-09T16:46:49.305Z,20.10
2023-04-09T16:49:17.812Z,20.52
2023-04-09T16:51:46.728Z,19.73
2023-04-09T16:54:16.471Z,19.65
2023-04-09T16:56:44.909Z,18.53
2023-04-09T16:59:13.537Z,19.48
2023-04-09T17:01:41.901Z,20.40
2023-04-09T17:04:10.753Z,19.55
2023-04-09T17:06:39.151Z,20.88
2023-04-09T17:09:07.520Z,21.35
2023-04-09T17:11:38.038Z,18.83
2023-04-09T17:16:34.965Z,20.42
2023-04-09T17:19:03.456Z,17.90
2023-04-09T17:21:31.977Z,19.40
2023-04-09T17:24:02.240Z,18.77
2023-04-09T17:26:30.648Z,16.80
2023-04-09T17:29:00.333Z,18.48
2023-04-09T17:31:28.788Z,19.00
2023-04-09T17:33:57.076Z,19.05
2023-04-09T17:36:25.738Z,20.33
2023-04-09T17:38:56.721Z,18.85
2023-04-09T17:41:25.453Z,18.77
2023-04-09T17:43:53.836Z,18.23
2023-04-09T17:46:23.910Z,18.13
2023-04-09T17:48:53.556Z,18.48
2023-04-09T17:51:22.045Z,17.92
2023-04-09T17:53:50.351Z,17.80
2023-04-09T17:56:19.045Z,17.92
2023-04-09T17:58:47.689Z,15.52
2023-04-09T18:01:16.102Z,15.05
2023-04-09T18:03:47.084Z,15.95
2023-04-09T18:06:16.614Z,17.27
2023-04-09T18:08:45.059Z,16.83
2023-04-09T18:11:15.489Z,17.42
2023-04-09T18:13:43.938Z,18.08
2023-04-09T18:16:13.082Z,17.55
2023-04-09T18:18:41.564Z,18.05
2023-04-09T18:21:11.266Z,18.85
2023-04-09T18:23:40.353Z,19.27
2023-04-09T18:26:08.792Z,18.42
2023-04-09T18:28:37.286Z,18.20
2023-04-09T18:31:06.385Z,18.67
2023-04-09T18:33:34.727Z,19.33
2023-04-09T18:36:03.338Z,17.48
2023-04-09T18:38:33.010Z,19.15
2023-04-09T18:41:01.654Z,19.67
2023-04-09T18:43:30.261Z,19.10
2023-04-09T18:45:59.272Z,19.17
2023-04-09T18:48:27.739Z,19.67
2023-04-09T18:50:56.176Z,19.67
2023-04-09T18:53:25.098Z,20.10
2023-04-09T18:55:54.800Z,19.30
2023-04-09T18:58:24.060Z,18.85
2023-04-09T19:00:52.626Z,19.23
2023-04-09T19:03:21.370Z,19.15
2023-04-09T19:05:50.013Z,19.05
2023-04-09T19:08:18.320Z,19.73
2023-04-09T19:10:48.228Z,19.02
2023-04-09T19:13:18.244Z,19.58
2023-04-09T19:15:46.685Z,18.58
2023-04-09T19:18:17.024Z,18.77
2023-04-09T19:20:45.402Z,19.50
2023-04-09T19:23:13.988Z,20.23
2023-04-09T19:25:42.857Z,19.17
2023-04-09T19:28:11.505Z,19.20
2023-04-09T19:30:41.294Z,18.50
2023-04-09T19:33:09.644Z,20.05
2023-04-09T19:35:40.637Z,19.52
2023-04-09T19:38:09.707Z,19.70
2023-04-09T19:40:38.132Z,18.65
2023-04-09T19:43:06.486Z,18.75
2023-04-09T19:45:34.908Z,19.30
2023-04-09T19:48:04.791Z,19.08
2023-04-09T19:50:37.777Z,20.95
2023-04-09T19:53:07.030Z,19.90
2023-04-09T19:55:35.885Z,20.35
2023-04-09T19:58:04.581Z,19.50
2023-04-09T20:00:34.488Z,20.00
2023-04-09T20:03:05.846Z,19.83
2023-04-09T20:05:34.462Z,19.58
2023-04-09T20:08:03.061Z,19.10
2023-04-09T20:10:31.548Z,19.52
2023-04-09T20:12:59.900Z,20.65
2023-04-09T20:15:28.413Z,20.02
2023-04-09T20:17:57.382Z,19.00
2023-04-09T20:20:27.281Z,19.55
2023-04-09T20:22:56.787Z,20.20
2023-04-09T20:25:26.162Z,19.40
2023-04-09T20:27:54.811Z,19.45
2023-04-09T20:30:23.111Z,19.08
2023-04-09T20:32:51.684Z,18.92
2023-04-09T20:35:20.321Z,19.25
2023-04-09T20:37:50.348Z,19.75
2023-04-09T20:40:18.714Z,18.55
2023-04-09T20:42:47.046Z,18.42
2023-04-09T20:45:15.717Z,18.35
2023-04-09T20:47:44.176Z,18.60
2023-04-09T20:50:12.969Z,18.90
2023-04-09T20:52:41.839Z,17.90
2023-04-09T20:55:11.648Z,18.02
2023-04-09T20:57:39.985Z,18.93
2023-04-09T21:00:10.288Z,18.92
2023-04-09T21:02:40.447Z,18.20
2023-04-09T21:05:21.931Z,19.30
2023-04-09T21:07:52.620Z,18.05
2023-04-09T21:10:22.812Z,17.57
2023-04-09T21:12:51.340Z,17.45
2023-04-09T21:15:19.923Z,18.08
2023-04-09T21:17:48.294Z,17.73
2023-04-09T21:20:16.871Z,18.05
2023-04-09T21:22:45.633Z,18.85
2023-04-09T21:25:15.232Z,17.35
2023-04-09T21:27:45.845Z,18.00
2023-04-09T21:30:14.312Z,17.38
2023-04-09T21:32:43.032Z,18.60
2023-04-09T21:35:11.555Z,18.20
2023-04-09T21:37:39.884Z,18.00
2023-04-09T21:40:09.956Z,18.58
2023-04-09T21:42:38.334Z,17.42
2023-04-09T21:45:09.337Z,18.45
2023-04-09T21:47:37.785Z,18.73
2023-04-09T21:50:09.436Z,18.33
2023-04-09T21:52:38.328Z,18.60
2023-04-09T21:55:08.039Z,17.88
2023-04-09T21:57:36.395Z,18.97
2023-04-09T22:00:05.487Z,18.50
2023-04-09T22:02:38.699Z,18.40
2023-04-09T22:05:07.832Z,18.27
2023-04-09T22:07:37.244Z,18.40
2023-04-09T22:10:06.565Z,18.55
2023-04-09T22:12:36.189Z,18.52
2023-04-09T22:15:06.368Z,18.23
2023-04-09T22:17:36.092Z,17.67
2023-04-09T22:20:04.862Z,17.95
2023-04-09T22:22:33.604Z,17.92
2023-04-09T22:25:01.986Z,18.30
2023-04-09T22:27:30.312Z,17.90
2023-04-09T22:29:59.740Z,17.63
2023-04-09T22:32:28.293Z,18.23
2023-04-09T22:34:57.984Z,18.85
2023-04-09T22:37:26.328Z,17.83
2023-04-09T22:39:54.686Z,18.08
2023-04-09T22:42:23.634Z,18.35
2023-04-09T22:44:53.758Z,19.45
2023-04-09T22:47:22.927Z,18.73
2023-04-09T22:49:54.853Z,18.58
2023-04-09T22:52:24.710Z,18.75
2023-04-09T22:54:53.054Z,19.70
2023-04-09T22:57:21.405Z,18.20
2023-04-09T22:59:49.680Z,18.33
2023-04-09T23:02:18.223Z,18.02
2023-04-09T23:04:46.677Z,18.15
2023-04-09T23:07:14.956Z,18.60
2023-04-09T23:09:44.730Z,18.38
2023-04-09T23:12:13.053Z,19.17
2023-04-09T23:14:41.366Z,17.83
2023-04-09T23:17:09.891Z,19.55
2023-04-09T23:19:38.260Z,18.20
2023-04-09T23:22:07.323Z,18.40
2023-04-09T23:24:35.764Z,17.52
2023-04-09T23:27:05.523Z,17.85
2023-04-09T23:29:33.907Z,17.83
2023-04-09T23:32:02.884Z,16.98
2023-04-09T23:34:31.263Z,16.45
2023-04-09T23:36:59.567Z,17.30
2023-04-09T23:39:28.106Z,15.98
2023-04-09T23:41:56.349Z,16.60
2023-04-09T23:44:25.953Z,16.65
2023-04-09T23:46:54.434Z,16.45
2023-04-09T23:49:22.745Z,16.27
2023-04-09T23:51:52.624Z,16.42
2023-04-09T23:54:21.282Z,16.60
2023-04-09T23:56:49.700Z,16.17
2023-04-09T23:59:18.067Z,15.48
